createdAt,value
2023-02-11T00:03:06.682Z,102480.19
2023-02-11T00:08:10.534Z,102511.41
2023-02-11T00:13:14.637Z,102521.41
2023-02-11T00:18:18.539Z,102526.31
2023-02-11T00:23:22.333Z,102525.41
2023-02-11T00:28:27.855Z,102522.06
2023-02-11T00:33:31.675Z,102520.44
2023-02-11T00:38:35.861Z,102531.66
2023-02-11T00:43:39.972Z,102484.03
2023-02-11T00:48:44.594Z,102514.53
2023-02-11T00:53:48.408Z,102516.84
2023-02-11T00:58:53.551Z,102528.59
2023-02-11T01:03:57.542Z,102443.09
2023-02-11T01:09:01.312Z,102539.00
2023-02-11T01:14:05.286Z,102552.84
2023-02-11T01:19:09.228Z,102560.91
2023-02-11T01:24:13.499Z,102556.72
2023-02-11T01:29:20.021Z,102525.44
2023-02-11T01:34:23.850Z,102548.38
2023-02-11T01:39:28.542Z,102562.84
2023-02-11T01:44:38.994Z,102567.41
2023-02-11T01:49:52.203Z,102594.88
2023-02-11T01:55:31.549Z,102581.78
2023-02-11T02:00:39.765Z,102575.63
2023-02-11T02:05:53.094Z,102573.56
2023-02-11T02:10:59.177Z,102584.25
2023-02-11T02:16:10.031Z,102588.75
2023-02-11T02:21:38.301Z,102590.00
2023-02-11T02:27:13.739Z,102592.44
2023-02-11T02:32:29.478Z,102591.91
2023-02-11T02:37:38.602Z,102586.97
2023-02-11T02:42:44.966Z,102597.44
2023-02-11T02:47:48.755Z,102587.22
2023-02-11T02:53:13.356Z,102594.78
2023-02-11T02:58:49.055Z,102596.78
2023-02-11T03:04:20.981Z,102622.09
2023-02-11T03:09:32.006Z,102620.19
2023-02-11T03:14:37.639Z,102623.22
2023-02-11T03:19:47.128Z,102635.28
2023-02-11T03:24:51.010Z,102641.25
2023-02-11T03:30:12.556Z,102633.19
2023-02-11T03:35:25.567Z,102641.22
2023-02-11T03:40:42.321Z,102645.09
2023-02-11T03:45:50.203Z,102646.03
2023-02-11T03:50:57.555Z,102662.47
2023-02-11T03:56:06.435Z,102656.19
2023-02-11T04:01:10.554Z,102658.44
2023-02-11T04:06:14.431Z,102619.91
2023-02-11T04:11:18.202Z,102671.16
2023-02-11T04:16:22.316Z,102658.09
2023-02-11T04:21:26.269Z,102641.91
2023-02-11T04:26:30.081Z,102669.94
2023-02-11T04:31:34.150Z,102668.09
2023-02-11T04:36:38.041Z,102673.84
2023-02-11T04:41:41.741Z,102678.53
2023-02-11T04:46:45.827Z,102667.81
2023-02-11T04:51:49.784Z,102680.41
2023-02-11T04:56:53.677Z,102684.94
2023-02-11T05:01:57.809Z,102682.44
2023-02-11T05:07:01.573Z,102652.06
2023-02-11T05:12:05.686Z,102701.69
2023-02-11T05:17:09.508Z,102692.31
2023-02-11T05:22:13.315Z,102702.94
2023-02-11T05:27:17.167Z,102701.25
2023-02-11T05:32:20.861Z,102626.44
2023-02-11T05:37:24.933Z,102721.50
2023-02-11T05:42:28.682Z,102719.88
2023-02-11T05:47:33.902Z,102689.31
2023-02-11T05:52:37.978Z,102712.88
2023-02-11T05:57:41.901Z,102718.66
2023-02-11T06:02:45.989Z,102709.34
2023-02-11T06:07:49.857Z,102715.34
2023-02-11T06:12:53.980Z,102704.03
2023-02-11T06:17:58.265Z,102718.28
2023-02-11T06:23:01.980Z,102718.75
2023-02-11T06:28:06.026Z,102710.50
2023-02-11T06:33:09.851Z,102726.63
2023-02-11T06:38:14.684Z,102733.28
2023-02-11T06:43:18.615Z,102704.69
2023-02-11T06:48:23.173Z,102655.44
2023-02-11T06:53:27.263Z,102708.50
2023-02-11T06:58:31.121Z,102713.13
2023-02-11T07:03:40.490Z,102695.56
2023-02-11T07:08:46.633Z,102701.00
2023-02-11T07:13:50.947Z,102693.44
2023-02-11T07:18:55.079Z,102697.75
2023-02-11T07:23:58.813Z,102690.28
2023-02-11T07:29:04.033Z,102698.53
2023-02-11T07:34:07.864Z,102641.50
2023-02-11T07:39:11.884Z,102690.34
2023-02-11T07:44:16.186Z,102688.34
2023-02-11T07:49:20.056Z,102604.97
2023-02-11T07:54:24.111Z,102701.59
2023-02-11T07:59:28.996Z,102692.38
2023-02-11T08:04:32.919Z,102616.88
2023-02-11T08:09:36.917Z,102693.72
2023-02-11T08:14:40.658Z,102689.97
2023-02-11T08:19:44.585Z,102601.69
2023-02-11T08:24:50.153Z,102679.34
2023-02-11T08:29:56.908Z,102692.25
2023-02-11T08:35:00.693Z,102665.31
2023-02-11T08:40:06.934Z,102682.78
2023-02-11T08:45:11.178Z,102682.09
2023-02-11T08:50:15.834Z,102597.78
2023-02-11T08:55:19.690Z,102703.03
2023-02-11T09:00:24.467Z,102706.31
2023-02-11T09:05:28.774Z,102700.53
2023-02-11T09:10:32.590Z,102694.84
2023-02-11T09:22:05.783Z,102703.88
2023-02-11T09:27:09.598Z,102700.09
2023-02-11T09:32:14.445Z,102700.28
2023-02-11T09:37:19.916Z,102625.00
2023-02-11T09:42:38.486Z,102694.84
2023-02-11T09:47:50.239Z,102704.81
2023-02-11T09:53:22.031Z,102697.19
2023-02-11T09:58:32.987Z,102688.00
2023-02-11T10:04:20.895Z,102681.72
2023-02-11T10:09:55.547Z,102688.41
2023-02-11T10:15:14.808Z,102685.22
2023-02-11T10:20:37.890Z,102695.28
2023-02-11T10:25:45.888Z,102687.69
2023-02-11T10:31:01.786Z,102691.38
2023-02-11T10:36:06.527Z,102698.34
2023-02-11T10:41:19.658Z,102701.34
2023-02-11T10:46:34.100Z,102708.38
2023-02-11T10:51:38.425Z,102710.59
2023-02-11T10:56:47.733Z,102717.16
2023-02-11T11:01:53.018Z,102727.50
2023-02-11T11:07:28.359Z,102725.53
2023-02-11T11:12:48.227Z,102731.31
2023-02-11T11:18:20.959Z,102726.56
2023-02-11T11:23:27.120Z,102744.41
2023-02-11T11:28:39.413Z,102753.47
2023-02-11T11:33:45.447Z,102752.50
2023-02-11T11:38:59.637Z,102760.41
2023-02-11T11:44:40.842Z,102766.56
2023-02-11T11:50:10.645Z,102767.84
2023-02-11T11:55:18.371Z,102770.00
2023-02-11T12:00:28.813Z,102761.47
2023-02-11T12:05:55.271Z,102773.50
2023-02-11T12:11:04.525Z,102777.25
2023-02-11T12:16:20.876Z,102775.59
2023-02-11T12:21:39.827Z,102781.78
2023-02-11T12:27:04.164Z,102778.13
2023-02-11T12:32:11.299Z,102774.56
2023-02-11T12:37:31.341Z,102776.25
2023-02-11T12:43:15.204Z,102771.44
2023-02-11T12:48:51.776Z,102782.28
2023-02-11T12:54:32.413Z,102788.63
2023-02-11T13:00:01.744Z,102790.59
2023-02-11T13:05:14.440Z,102798.88
2023-02-11T13:10:33.778Z,102798.72
2023-02-11T13:15:39.467Z,102800.84
2023-02-11T13:20:46.261Z,102794.06
2023-02-11T13:26:00.977Z,102796.13
2023-02-11T13:31:08.350Z,102794.56
2023-02-11T13:36:16.860Z,102809.81
2023-02-11T13:41:28.910Z,102819.22
2023-02-11T13:47:05.838Z,102824.00
2023-02-11T13:52:39.874Z,102827.56
2023-02-11T13:57:43.993Z,102822.41
2023-02-11T14:03:31.923Z,102829.78
2023-02-11T14:08:54.518Z,102845.44
2023-02-11T14:14:17.390Z,102808.69
2023-02-11T14:19:36.709Z,102834.25
2023-02-11T14:24:49.278Z,102833.22
2023-02-11T14:30:04.771Z,102833.81
2023-02-11T14:35:36.374Z,102834.84
2023-02-11T14:40:57.376Z,102842.63
2023-02-11T14:46:03.724Z,102781.00
2023-02-11T14:51:16.577Z,102845.28
2023-02-11T14:56:28.106Z,102850.50
2023-02-11T15:01:41.221Z,102849.78
2023-02-11T15:06:52.311Z,102870.09
2023-02-11T15:11:58.702Z,102860.94
2023-02-11T15:17:45.702Z,102860.94
2023-02-11T15:22:54.970Z,102836.28
2023-02-11T15:27:59.897Z,102861.06
2023-02-11T15:33:06.770Z,102870.69
2023-02-11T15:38:13.617Z,102871.00
2023-02-11T15:43:17.617Z,102861.94
2023-02-11T15:48:33.437Z,102774.09
2023-02-11T15:53:44.058Z,102867.06
2023-02-11T15:58:50.305Z,102852.78
2023-02-11T16:03:54.355Z,102861.81
2023-02-11T16:09:11.737Z,102849.44
2023-02-11T16:14:31.451Z,102859.63
2023-02-11T16:19:37.873Z,102874.78
2023-02-11T16:24:41.959Z,102857.66
2023-02-11T16:29:49.854Z,102858.09
2023-02-11T16:34:58.674Z,102876.19
2023-02-11T16:40:02.532Z,102874.28
2023-02-11T16:45:08.870Z,102876.63
2023-02-11T16:50:22.927Z,102879.50
2023-02-11T16:55:26.751Z,102869.88
2023-02-11T17:00:30.593Z,102887.63
2023-02-11T17:05:49.349Z,102880.66
2023-02-11T17:10:58.709Z,102886.78
2023-02-11T17:16:02.560Z,102888.13
2023-02-11T17:21:08.276Z,102886.50
2023-02-11T17:26:12.058Z,102895.47
2023-02-11T17:31:16.478Z,102884.09
2023-02-11T17:36:20.283Z,102877.28
2023-02-11T17:41:24.938Z,102894.53
2023-02-11T17:46:29.626Z,102899.22
2023-02-11T17:51:37.351Z,102906.06
2023-02-11T17:56:41.889Z,102890.50
2023-02-11T18:01:45.862Z,102905.63
2023-02-11T18:06:50.809Z,102912.91
2023-02-11T18:11:55.808Z,102908.53
2023-02-11T18:16:59.578Z,102880.66
2023-02-11T18:22:05.356Z,102911.88
2023-02-11T18:27:10.926Z,102833.94
2023-02-11T18:32:15.408Z,102908.31
2023-02-11T18:37:19.289Z,102898.91
2023-02-11T18:42:23.038Z,102914.75
2023-02-11T18:47:27.344Z,102899.47
2023-02-11T18:52:32.098Z,102898.75
2023-02-11T18:57:35.644Z,102898.28
2023-02-11T19:02:39.527Z,102899.00
2023-02-11T19:07:43.380Z,102898.66
2023-02-11T19:12:47.120Z,102915.91
2023-02-11T19:17:50.937Z,102911.06
2023-02-11T19:22:54.955Z,102912.34
2023-02-11T19:27:58.972Z,102910.13
2023-02-11T19:33:02.876Z,102920.78
2023-02-11T19:38:07.027Z,102809.75
2023-02-11T19:43:10.747Z,102915.72
2023-02-11T19:48:14.634Z,102909.28
2023-02-11T19:53:18.652Z,102913.81
2023-02-11T19:58:22.345Z,102921.94
2023-02-11T20:03:26.166Z,102926.97
2023-02-11T20:08:30.038Z,102923.00
2023-02-11T20:13:35.894Z,102916.78
2023-02-11T20:18:41.073Z,102906.28
2023-02-11T20:23:47.150Z,102904.34
2023-02-11T20:28:52.448Z,102909.53
2023-02-11T20:33:58.204Z,102912.00
2023-02-11T20:39:03.639Z,102912.06
2023-02-11T20:44:09.510Z,102911.56
2023-02-11T20:49:15.299Z,102899.22
2023-02-11T20:54:21.030Z,102911.50
2023-02-11T20:59:25.766Z,102885.41
2023-02-11T21:04:31.535Z,102891.22
2023-02-11T21:09:35.563Z,102802.47
2023-02-11T21:14:39.603Z,102883.53
2023-02-11T21:19:44.441Z,102883.94
2023-02-11T21:24:48.459Z,102896.06
2023-02-11T21:29:54.662Z,102800.81
2023-02-11T21:35:01.858Z,102900.34
2023-02-11T21:40:08.020Z,102877.88
2023-02-11T21:45:11.727Z,102896.94
2023-02-11T21:50:15.928Z,102916.34
2023-02-11T21:55:20.007Z,102897.22
2023-02-11T22:00:23.915Z,102912.50
2023-02-11T22:05:27.914Z,102904.94
2023-02-11T22:10:31.736Z,102907.97
2023-02-11T22:15:36.586Z,102898.72
2023-02-11T22:20:40.404Z,102907.00
2023-02-11T22:25:44.406Z,102900.25
2023-02-11T22:30:55.925Z,102900.41
2023-02-11T22:36:02.861Z,102899.97
2023-02-11T22:41:09.279Z,102890.50
2023-02-11T22:46:16.850Z,102887.72
2023-02-11T22:51:24.385Z,102897.56
2023-02-11T22:56:31.055Z,102894.56
2023-02-11T23:01:35.373Z,102893.34
2023-02-11T23:06:38.981Z,102896.50
2023-02-11T23:11:42.844Z,102815.63
2023-02-11T23:16:46.810Z,102889.81
2023-02-11T23:21:53.197Z,102886.22
2023-02-11T23:26:57.286Z,102847.81
2023-02-11T23:32:01.774Z,102875.63
2023-02-11T23:37:06.014Z,102887.03
2023-02-11T23:42:09.813Z,102890.44
2023-02-11T23:47:13.429Z,102888.91
2023-02-11T23:52:17.365Z,102894.63
2023-02-11T23:57:21.140Z,102895.00
